Time;durP1;ratioP1;P1;durP2;ratioP2;P2;SDS_P1;SDS_P2;PMS_P1;PMS_P2;Temp;Humidity;BMP_temperature;BMP_pressure;BME280_temperature;BME280_humidity;BME280_pressure;Samples;Min_cycle;Max_cycle;Signal;HPM_P1;HPM_P2
2022/07/21 00:01:09;;;;;;;;;3.00;3.00;;;;;22.70;58.35;101664.63;6248173;22;46541;-76
2022/07/21 00:03:34;;;;;;;;;3.00;2.00;;;;;22.74;58.45;101666.22;6250965;22;45576;-77
2022/07/21 00:06:07;;;;;;;;;4.25;4.25;;;;;22.74;58.28;101660.88;6279196;22;45672;-77
2022/07/21 00:08:34;;;;;;;;;2.00;2.00;;;;;22.72;58.52;101650.19;6276697;22;46090;-77
2022/07/21 00:11:00;;;;;;;;;4.00;4.00;;;;;22.68;58.09;101640.50;6279713;22;46366;-78
2022/07/21 00:13:25;;;;;;;;;4.00;4.00;;;;;22.67;58.47;101645.00;6279828;22;45300;-79
2022/07/21 00:15:51;;;;;;;;;4.00;3.00;;;;;22.63;58.22;101648.72;6251761;22;45359;-78
2022/07/21 00:18:20;;;;;;;;;3.00;2.33;;;;;22.63;58.15;101646.06;6251630;22;45359;-79
2022/07/21 00:20:48;;;;;;;;;2.33;2.00;;;;;22.62;58.44;101646.13;6251116;22;46874;-78
2022/07/21 00:23:14;;;;;;;;;3.50;3.50;;;;;22.63;58.53;101653.22;6276850;22;45224;-78
2022/07/21 00:25:42;;;;;;;;;5.00;2.00;;;;;22.55;58.61;101644.63;6251303;22;45346;-78
2022/07/21 00:28:10;;;;;;;;;3.00;2.00;;;;;22.52;58.50;101640.25;6279228;22;45201;-78
2022/07/21 00:30:35;;;;;;;;;4.00;2.67;;;;;22.54;58.66;101648.25;6278869;22;45198;-79
2022/07/21 00:33:03;;;;;;;;;3.00;1.00;;;;;22.49;58.67;101644.88;6279276;22;45083;-78
2022/07/21 00:35:48;;;;;;;;;5.00;4.00;;;;;22.49;59.07;101658.28;6277648;22;45252;-79
2022/07/21 00:38:14;;;;;;;;;3.00;2.67;;;;;22.45;59.13;101649.44;6250240;22;45206;-78
2022/07/21 00:40:42;;;;;;;;;3.00;3.00;;;;;22.44;59.54;101650.41;6251040;22;45972;-78
2022/07/21 00:43:09;;;;;;;;;3.67;2.00;;;;;22.38;59.64;101643.47;6251472;22;45303;-77
2022/07/21 00:45:36;;;;;;;;;3.00;3.00;;;;;22.33;59.69;101634.72;6251276;22;45195;-78
2022/07/21 00:48:01;;;;;;;;;3.00;3.00;;;;;22.32;59.69;101643.72;6279149;22;45393;-78
2022/07/21 00:50:29;;;;;;;;;5.33;3.33;;;;;22.34;59.67;101643.63;6279242;22;45839;-78
2022/07/21 00:52:57;;;;;;;;;5.75;4.75;;;;;22.28;59.46;101639.38;6251294;22;45335;-78
2022/07/21 00:55:23;;;;;;;;;5.25;5.25;;;;;22.30;59.79;101642.88;6279465;22;45390;-78
2022/07/21 00:57:50;;;;;;;;;3.75;3.75;;;;;22.23;59.70;101641.34;6251222;22;45409;-79
2022/07/21 01:00:29;;;;;;;;;5.00;5.00;;;;;22.29;59.58;101653.66;6251451;22;48084;-78
2022/07/21 01:03:28;;;;;;;;;4.50;4.50;;;;;22.27;59.93;101643.00;6278987;22;45356;-78
2022/07/21 01:06:18;;;;;;;;;5.00;4.00;;;;;22.18;59.59;101636.16;6252020;22;45236;-78
2022/07/21 01:08:49;;;;;;;;;6.75;3.50;;;;;22.13;59.91;101634.56;6251699;22;45209;-78
2022/07/21 01:11:20;;;;;;;;;4.00;4.00;;;;;22.09;60.17;101641.84;6251067;22;47394;-79
2022/07/21 01:13:46;;;;;;;;;3.25;3.25;;;;;22.08;60.18;101650.84;6250690;22;45253;-79
2022/07/21 01:16:19;;;;;;;;;5.50;3.25;;;;;22.01;60.07;101644.81;6251313;22;45370;-79
2022/07/21 01:18:49;;;;;;;;;3.00;3.00;;;;;21.94;60.33;101645.09;6278749;22;45343;-79
2022/07/21 01:21:35;;;;;;;;;6.00;5.00;;;;;21.96;60.56;101652.16;6276944;22;48148;-78
2022/07/21 01:24:05;;;;;;;;;6.50;4.00;;;;;21.89;60.76;101642.59;6250660;22;45244;-79
2022/07/21 01:26:39;;;;;;;;;3.00;3.00;;;;;21.92;60.97;101650.53;6279069;22;45276;-78
2022/07/21 01:29:11;;;;;;;;;3.75;3.75;;;;;21.85;60.84;101650.81;6278981;22;45413;-79
2022/07/21 01:31:42;;;;;;;;;6.00;4.00;;;;;21.83;61.29;101637.44;6276847;22;47844;-79
2022/07/21 01:34:11;;;;;;;;;2.50;2.50;;;;;21.76;61.33;101633.25;6278806;22;45319;-78
2022/07/21 01:36:37;;;;;;;;;3.25;3.25;;;;;21.68;61.34;101621.91;6250146;22;45281;-79
2022/07/21 01:41:55;;;;;;;;;4.00;4.00;;;;;21.69;62.02;101631.72;6278488;22;45461;-78
2022/07/21 01:44:20;;;;;;;;;5.00;4.75;;;;;21.63;61.65;101618.53;6278824;22;45176;-78
2022/07/21 01:47:00;;;;;;;;;6.00;6.00;;;;;21.57;61.74;101614.25;6251099;22;45134;-79
2022/07/21 01:49:27;;;;;;;;;2.75;2.75;;;;;21.60;61.98;101627.56;6278852;22;45279;-79
2022/07/21 01:51:53;;;;;;;;;4.25;4.25;;;;;21.62;61.65;101632.84;6277825;22;45522;-79
2022/07/21 01:54:19;;;;;;;;;5.00;5.00;;;;;21.61;62.17;101631.13;6278964;22;45316;-80
2022/07/21 01:56:44;;;;;;;;;5.00;5.00;;;;;21.57;62.06;101635.69;6279670;22;45485;-78
2022/07/21 01:59:12;;;;;;;;;5.00;5.00;;;;;21.59;61.78;101648.09;6251879;22;45367;-78
2022/07/21 02:01:40;;;;;;;;;3.50;3.50;;;;;21.59;61.96;101647.25;6279033;22;46301;-78
2022/07/21 02:04:06;;;;;;;;;4.00;3.25;;;;;21.54;62.07;101647.44;6278697;22;45342;-78
2022/07/21 02:06:32;;;;;;;;;5.25;4.50;;;;;21.52;62.17;101648.41;6251145;22;45362;-78
2022/07/21 02:09:00;;;;;;;;;5.00;4.25;;;;;21.55;62.60;101651.84;6250752;22;45891;-77
2022/07/21 02:11:29;;;;;;;;;5.00;5.00;;;;;21.53;62.62;101653.69;6251027;22;47053;-79
2022/07/21 02:13:54;;;;;;;;;7.00;6.00;;;;;21.51;62.46;101643.97;6251119;22;45358;-78
2022/07/21 02:16:20;;;;;;;;;6.50;6.50;;;;;21.47;62.77;101642.31;6278872;22;45449;-79
2022/07/21 02:18:50;;;;;;;;;4.50;3.00;;;;;21.48;62.90;101649.44;6278985;22;45388;-79
2022/07/21 02:21:20;;;;;;;;;5.00;4.25;;;;;21.47;62.96;101650.38;6279221;22;45394;-79
2022/07/21 02:23:45;;;;;;;;;4.00;4.00;;;;;21.39;62.67;101644.41;6279027;22;45330;-80
2022/07/21 02:26:13;;;;;;;;;5.00;5.00;;;;;21.37;62.39;101644.41;6252469;22;45386;-78
2022/07/21 02:28:39;;;;;;;;;5.75;5.75;;;;;21.37;62.69;101652.44;6279973;22;45408;-78
2022/07/21 02:31:13;;;;;;;;;4.50;4.50;;;;;21.29;62.61;101646.47;6251627;22;46096;-79
2022/07/21 02:33:38;;;;;;;;;6.50;5.00;;;;;21.26;62.89;101649.25;6251751;22;45352;-79
2022/07/21 02:36:07;;;;;;;;;8.00;5.00;;;;;21.24;62.76;101645.75;6278999;22;45661;-79
2022/07/21 02:38:32;;;;;;;;;5.50;5.50;;;;;21.28;62.90;101658.13;6250448;22;45972;-79
2022/07/21 02:41:00;;;;;;;;;7.75;7.75;;;;;21.23;62.74;101650.25;6250637;22;46167;-79
2022/07/21 02:43:25;;;;;;;;;8.00;8.00;;;;;21.29;62.96;101662.53;6278795;22;45331;-79
2022/07/21 02:45:53;;;;;;;;;7.50;7.50;;;;;21.26;62.67;101658.16;6251015;22;45339;-79
2022/07/21 02:48:37;;;;;;;;;8.25;6.00;;;;;21.25;62.58;101661.78;6277844;22;45287;-79
2022/07/21 02:51:02;;;;;;;;;6.75;5.75;;;;;21.30;63.08;101666.97;6278745;22;46490;-78
2022/07/21 02:53:33;;;;;;;;;8.75;8.00;;;;;21.25;62.56;101651.06;6278168;22;45546;-79
2022/07/21 02:55:59;;;;;;;;;8.25;8.00;;;;;21.27;62.27;101670.63;6279372;22;45220;-78
2022/07/21 02:58:26;;;;;;;;;10.00;8.00;;;;;21.24;62.44;101673.41;6250432;22;45346;-78
2022/07/21 03:00:58;;;;;;;;;9.00;7.00;;;;;21.19;62.17;101670.00;6249788;22;46953;-78
2022/07/21 03:03:28;;;;;;;;;9.00;8.00;;;;;21.17;62.90;101674.56;6278600;22;45240;-78
2022/07/21 03:05:54;;;;;;;;;9.00;8.00;;;;;21.14;62.82;101679.97;6278849;22;45400;-78
2022/07/21 03:08:20;;;;;;;;;11.00;11.00;;;;;21.12;62.71;101682.72;6250266;22;45247;-79
2022/07/21 03:10:46;;;;;;;;;8.75;8.75;;;;;20.97;62.86;101667.16;6250462;22;46602;-78
2022/07/21 03:13:14;;;;;;;;;10.75;9.00;;;;;21.00;62.88;101679.56;6250373;22;45249;-79
2022/07/21 03:15:42;;;;;;;;;10.50;10.50;;;;;20.95;63.06;101681.50;6250820;22;45336;-78
2022/07/21 03:18:08;;;;;;;;;9.50;9.50;;;;;20.90;63.21;101677.19;6250200;22;45312;-79
2022/07/21 03:20:37;;;;;;;;;13.25;12.25;;;;;20.85;63.13;101681.81;6250015;22;45475;-78
2022/07/21 03:23:05;;;;;;;;;12.50;11.25;;;;;20.76;63.23;101674.06;6277626;22;45232;-79
2022/07/21 03:25:33;;;;;;;;;12.25;12.00;;;;;20.70;63.42;101677.81;6250202;22;45378;-79
2022/07/21 03:28:02;;;;;;;;;11.00;10.25;;;;;20.66;63.22;101686.88;6250491;22;45483;-79
2022/07/21 03:30:28;;;;;;;;;14.50;13.75;;;;;20.55;63.84;101669.38;6250126;22;45689;-79
2022/07/21 03:32:54;;;;;;;;;14.25;11.50;;;;;20.60;64.08;101699.53;6250495;22;45207;-79
2022/07/21 03:35:22;;;;;;;;;17.75;14.00;;;;;20.53;64.18;101680.09;6278594;22;45162;-79
2022/07/21 03:37:56;;;;;;;;;16.75;12.25;;;;;20.53;63.92;101688.13;6277754;22;45295;-78
2022/07/21 03:40:24;;;;;;;;;9.75;9.75;;;;;20.49;64.17;101679.31;6278782;22;45987;-79
2022/07/21 03:42:53;;;;;;;;;16.00;13.50;;;;;20.57;64.29;101695.16;6276662;22;45236;-78
2022/07/21 03:45:22;;;;;;;;;12.00;12.00;;;;;20.56;64.13;101697.91;6280421;22;45383;-78
2022/07/21 03:47:48;;;;;;;;;12.50;11.50;;;;;20.49;64.30;101679.31;6250334;22;45407;-78
2022/07/21 03:50:17;;;;;;;;;12.25;11.75;;;;;20.61;64.34;101698.59;6277920;22;45815;-78
2022/07/21 03:52:45;;;;;;;;;11.75;10.75;;;;;20.61;64.73;101703.97;6248486;22;45287;-78
2022/07/21 03:55:20;;;;;;;;;13.75;13.00;;;;;20.59;64.71;101696.00;6250231;22;45287;-78
2022/07/21 03:58:12;;;;;;;;;14.75;13.75;;;;;20.67;64.74;101706.47;6278018;22;45363;-78
2022/07/21 04:00:48;;;;;;;;;13.25;13.25;;;;;20.60;64.38;101692.38;6274153;22;45362;-78
2022/07/21 04:03:17;;;;;;;;;16.25;14.25;;;;;20.57;64.33;101684.47;6277239;22;45228;-78
2022/07/21 04:05:44;;;;;;;;;16.50;15.25;;;;;20.62;64.35;101695.91;6279271;22;45388;-78
2022/07/21 04:08:13;;;;;;;;;16.75;15.50;;;;;20.64;64.33;101698.53;6251149;22;45330;-78
2022/07/21 04:10:40;;;;;;;;;17.75;16.00;;;;;20.58;64.78;101694.25;6279072;22;45249;-78
2022/07/21 04:13:09;;;;;;;;;16.00;15.50;;;;;20.67;64.48;101709.16;6279007;22;45307;-78
2022/07/21 04:15:35;;;;;;;;;17.50;15.75;;;;;20.62;64.65;101697.69;6251448;22;45256;-78
2022/07/21 04:18:02;;;;;;;;;15.75;14.25;;;;;20.64;64.55;101696.72;6251440;22;45445;-79
2022/07/21 04:20:28;;;;;;;;;14.50;14.00;;;;;20.67;64.73;101704.66;6276927;22;46598;-78
2022/07/21 04:22:54;;;;;;;;;17.75;16.00;;;;;20.68;64.42;101709.09;6278772;22;45193;-78
2022/07/21 04:25:22;;;;;;;;;21.00;16.25;;;;;20.68;64.40;101709.09;6251653;22;45173;-79
2022/07/21 04:27:51;;;;;;;;;19.75;17.75;;;;;20.75;64.67;101714.28;6251354;22;45491;-78
2022/07/21 04:30:21;;;;;;;;;14.75;13.00;;;;;20.75;64.30;101715.16;6279178;22;45922;-79
2022/07/21 04:32:51;;;;;;;;;16.25;14.50;;;;;20.83;64.75;101720.25;6279894;22;45326;-78
2022/07/21 04:35:17;;;;;;;;;17.50;17.50;;;;;20.83;64.57;101721.13;6280142;22;45200;-79
2022/07/21 04:37:43;;;;;;;;;16.50;16.50;;;;;20.81;64.30;101719.44;6251450;22;45478;-78
2022/07/21 04:40:11;;;;;;;;;15.75;15.00;;;;;20.81;64.31;101722.09;6252068;22;47022;-78
2022/07/21 04:42:37;;;;;;;;;20.75;16.25;;;;;20.79;64.29;101716.78;6252401;22;45256;-78
2022/07/21 04:45:04;;;;;;;;;15.25;15.25;;;;;20.85;64.19;101723.75;6279694;22;45351;-79
2022/07/21 04:47:29;;;;;;;;;17.00;15.00;;;;;20.85;64.02;101718.38;6280712;22;45118;-79
2022/07/21 04:49:57;;;;;;;;;17.25;17.25;;;;;20.82;64.43;101716.72;6280345;22;45359;-78
2022/07/21 04:52:25;;;;;;;;;16.00;16.00;;;;;20.79;64.30;101703.41;6245392;22;45478;-78
2022/07/21 04:54:50;;;;;;;;;22.00;21.00;;;;;20.81;64.25;101714.94;6248659;22;45276;-78
2022/07/21 04:57:16;;;;;;;;;19.25;17.75;;;;;20.88;64.20;101719.19;6248350;22;45265;-78
2022/07/21 04:59:43;;;;;;;;;16.25;15.00;;;;;20.82;64.17;101715.81;6248435;22;46351;-79
2022/07/21 05:02:14;;;;;;;;;22.00;20.75;;;;;20.85;64.32;101724.66;6248147;22;45229;-78
2022/07/21 05:04:39;;;;;;;;;19.00;16.00;;;;;20.81;64.27;101725.66;6248600;22;45285;-79
2022/07/21 05:07:04;;;;;;;;;20.00;18.00;;;;;20.86;64.09;101729.06;6247821;22;45421;-78
2022/07/21 05:09:32;;;;;;;;;21.75;19.50;;;;;20.89;64.38;101726.28;6219911;22;46018;-78
2022/07/21 05:11:57;;;;;;;;;19.25;17.50;;;;;20.89;64.67;101723.59;6247309;22;45296;-79
2022/07/21 05:14:23;;;;;;;;;23.75;21.25;;;;;20.96;64.24;101735.03;6248470;22;45336;-78
2022/07/21 05:16:50;;;;;;;;;11.50;11.50;;;;;20.96;63.84;101736.81;6220744;22;45391;-78
2022/07/21 05:19:18;;;;;;;;;24.00;19.75;;;;;20.93;63.94;101735.13;6247917;22;45460;-79
2022/07/21 05:21:46;;;;;;;;;20.25;19.75;;;;;20.92;64.33;101734.22;6246124;22;45217;-78
2022/07/21 05:24:14;;;;;;;;;22.50;20.25;;;;;20.97;64.20;101743.94;6221299;22;45426;-78
2022/07/21 05:26:40;;;;;;;;;21.00;18.50;;;;;20.95;64.19;101735.06;6248327;22;45365;-78
2022/07/21 05:29:05;;;;;;;;;26.50;22.75;;;;;20.97;63.75;101746.59;6221027;22;45968;-78
2022/07/21 05:31:33;;;;;;;;;15.25;15.00;;;;;20.92;64.28;101733.34;6246329;22;45122;-78
2022/07/21 05:34:00;;;;;;;;;19.75;18.75;;;;;20.95;64.34;101735.94;6248426;22;45161;-78
2022/07/21 05:36:26;;;;;;;;;19.25;17.50;;;;;20.96;64.18;101736.81;6220245;22;45430;-78
2022/07/21 05:38:53;;;;;;;;;18.00;18.00;;;;;20.97;64.26;101736.75;6247067;22;46342;-78
2022/07/21 05:41:21;;;;;;;;;20.50;18.00;;;;;20.99;64.48;101740.28;6246139;22;45284;-78
2022/07/21 05:43:49;;;;;;;;;26.50;21.50;;;;;21.02;64.13;101744.66;6248050;22;45161;-77
2022/07/21 05:46:17;;;;;;;;;21.25;19.75;;;;;20.99;64.28;101734.91;6247762;22;45436;-77
2022/07/21 05:48:45;;;;;;;;;26.25;21.75;;;;;21.08;64.03;101745.31;6247697;22;45286;-77
2022/07/21 05:51:13;;;;;;;;;18.25;15.00;;;;;21.12;64.08;101751.50;6219794;22;45190;-77
2022/07/21 05:53:39;;;;;;;;;23.25;23.25;;;;;21.20;63.89;101757.47;6250680;22;45258;-77
2022/07/21 05:56:04;;;;;;;;;15.75;15.75;;;;;21.24;64.02;101753.75;6278673;22;45199;-77
2022/07/21 05:58:30;;;;;;;;;22.25;20.00;;;;;21.27;64.00;101758.13;6278856;22;45336;-75
2022/07/21 06:01:13;;;;;;;;;17.50;16.25;;;;;21.34;63.95;101768.63;6251545;22;45396;-78
2022/07/21 06:03:46;;;;;;;;;22.00;19.50;;;;;21.37;63.45;101759.59;6251120;22;45217;-77
2022/07/21 06:06:13;;;;;;;;;20.75;17.25;;;;;21.39;63.77;101762.28;6251543;22;45272;-88
2022/07/21 06:08:39;;;;;;;;;18.25;16.50;;;;;21.42;63.54;101762.16;6251909;22;47351;-89
2022/07/21 06:11:06;;;;;;;;;21.25;20.25;;;;;21.33;63.27;101757.94;6253565;22;45410;-90
2022/07/21 06:13:32;;;;;;;;;24.75;20.25;;;;;21.34;63.40;101768.63;6253096;22;45256;-87
2022/07/21 06:15:57;;;;;;;;;19.50;19.50;;;;;21.35;63.63;101766.81;6256300;22;45372;-89
2022/07/21 06:18:23;;;;;;;;;24.75;20.25;;;;;21.35;63.58;101770.34;6256964;22;47988;-90
2022/07/21 06:20:48;;;;;;;;;14.25;14.25;;;;;21.32;63.52;101767.78;6255621;22;45261;-90
2022/07/21 06:23:14;;;;;;;;;20.50;20.50;;;;;21.30;63.66;101761.63;6254520;22;45313;-89
2022/07/21 06:25:39;;;;;;;;;20.25;17.75;;;;;21.34;63.42;101767.75;6256440;22;45481;-92
2022/07/21 06:28:05;;;;;;;;;23.00;20.50;;;;;21.37;63.81;101770.31;6255484;22;46915;-89
2022/07/21 06:30:30;;;;;;;;;24.75;21.25;;;;;21.39;63.65;101767.63;6254124;22;46095;-89
2022/07/21 06:32:56;;;;;;;;;19.25;15.75;;;;;21.45;63.97;101773.66;6283953;22;45173;-92
2022/07/21 06:35:21;;;;;;;;;21.75;19.50;;;;;21.50;63.47;101777.06;6256091;22;44814;-91
2022/07/21 06:37:47;;;;;;;;;19.50;19.00;;;;;21.48;63.13;101775.34;6228557;22;47128;-90
2022/07/21 06:40:13;;;;;;;;;22.00;19.50;;;;;21.55;63.32;101776.91;6253588;22;45111;-92
2022/07/21 06:42:38;;;;;;;;;21.75;20.75;;;;;21.61;63.05;101778.53;6254431;22;45202;-91
2022/07/21 06:45:05;;;;;;;;;20.50;19.75;;;;;21.67;63.00;101778.31;6280812;22;45340;-89
2022/07/21 06:47:30;;;;;;;;;22.25;20.50;;;;;21.66;62.94;101774.75;6252506;22;47450;-88
2022/07/21 06:49:57;;;;;;;;;27.00;24.75;;;;;21.73;62.77;101778.09;6279820;22;45318;-88
2022/07/21 06:52:23;;;;;;;;;16.75;15.75;;;;;21.81;62.83;101778.69;6250623;22;45276;-85
2022/07/21 06:54:48;;;;;;;;;18.75;18.75;;;;;21.84;62.79;101775.94;6278267;22;45286;-90
2022/07/21 06:57:13;;;;;;;;;20.25;19.25;;;;;21.93;62.46;101774.75;6277679;22;47089;-88
2022/07/21 06:59:39;;;;;;;;;19.50;19.50;;;;;22.00;62.33;101784.34;6252075;22;45356;-91
2022/07/21 07:02:04;;;;;;;;;23.75;20.50;;;;;22.00;62.14;101785.22;6252638;22;45204;-87
2022/07/21 07:04:30;;;;;;;;;17.00;16.00;;;;;22.02;62.37;101780.69;6279909;22;45493;-92
2022/07/21 07:06:55;;;;;;;;;20.75;19.25;;;;;22.09;62.15;101780.44;6279581;22;45150;-83
2022/07/21 07:09:22;;;;;;;;;23.75;22.75;;;;;22.16;62.00;101798.06;6279792;22;45199;-85
2022/07/21 07:11:48;;;;;;;;;20.75;17.75;;;;;22.20;62.03;101803.31;6254489;22;45158;-86
2022/07/21 07:14:14;;;;;;;;;22.25;21.25;;;;;22.22;61.93;101795.22;6253905;22;45213;-85
2022/07/21 07:16:40;;;;;;;;;21.50;18.75;;;;;22.27;61.79;101801.28;6279857;22;46131;-86
2022/07/21 07:19:05;;;;;;;;;22.50;19.50;;;;;22.36;61.31;101802.75;6250869;22;45589;-88
2022/07/21 07:21:31;;;;;;;;;20.50;20.25;;;;;22.36;61.38;101802.75;6251828;22;45490;-86
2022/07/21 07:23:56;;;;;;;;;22.25;20.25;;;;;22.35;61.70;101799.22;6250972;22;46102;-86
2022/07/21 07:26:21;;;;;;;;;23.50;21.00;;;;;22.34;61.35;101805.50;6251052;22;46902;-79
2022/07/21 07:28:47;;;;;;;;;27.75;20.50;;;;;22.37;61.11;101804.50;6273597;22;45266;-85
2022/07/21 07:31:12;;;;;;;;;22.75;22.25;;;;;22.43;61.39;101804.31;6249218;22;45315;-85
2022/07/21 07:33:37;;;;;;;;;25.50;25.50;;;;;22.50;61.14;101796.88;6275303;22;45473;-89
2022/07/21 07:36:03;;;;;;;;;23.50;20.50;;;;;22.58;60.99;101798.34;6252982;22;46207;-88
2022/07/21 07:38:28;;;;;;;;;22.50;21.00;;;;;22.65;60.84;101804.38;6276661;22;45307;-88
2022/07/21 07:40:54;;;;;;;;;20.75;18.75;;;;;22.74;60.88;101805.84;6279430;22;45305;-90
2022/07/21 07:43:20;;;;;;;;;21.00;19.50;;;;;22.81;60.45;101802.00;6250773;22;45249;-89
2022/07/21 07:45:45;;;;;;;;;27.25;22.25;;;;;22.88;60.37;101801.72;6279530;22;46387;-88
2022/07/21 07:48:11;;;;;;;;;24.25;21.50;;;;;22.94;60.18;101802.41;6251752;22;45252;-91
2022/07/21 07:50:36;;;;;;;;;17.75;16.25;;;;;22.94;60.35;101802.41;6279185;22;45255;-89
2022/07/21 07:53:02;;;;;;;;;26.00;21.25;;;;;23.07;60.02;101815.34;6250837;22;45284;-87
2022/07/21 07:55:27;;;;;;;;;20.00;19.50;;;;;23.10;59.75;101817.91;6251992;22;48456;-90
2022/07/21 07:57:53;;;;;;;;;24.50;20.00;;;;;23.17;59.63;101812.28;6251974;22;45269;-87
2022/07/21 08:00:19;;;;;;;;;22.75;20.25;;;;;23.19;59.64;101810.41;6250719;22;45241;-89
2022/07/21 08:02:45;;;;;;;;;17.00;17.00;;;;;23.28;59.85;101812.72;6282897;22;45408;-87
2022/07/21 08:05:11;;;;;;;;;23.75;21.50;;;;;23.38;59.44;101815.94;6253620;22;47028;-89
2022/07/21 08:07:37;;;;;;;;;26.75;24.50;;;;;23.42;59.33;101814.88;6253146;22;45453;-90
2022/07/21 08:10:05;;;;;;;;;24.75;23.00;;;;;23.48;59.16;101815.50;6281788;22;45696;-90
2022/07/21 08:12:33;;;;;;;;;25.00;22.50;;;;;23.52;58.31;101818.94;6277977;22;45325;-86
2022/07/21 08:14:58;;;;;;;;;27.25;25.00;;;;;23.56;58.47;101825.94;6249350;22;47242;-85
2022/07/21 08:17:24;;;;;;;;;27.50;26.00;;;;;23.53;58.05;101818.00;6249941;22;45261;-84
2022/07/21 08:19:49;;;;;;;;;25.00;23.25;;;;;23.47;58.06;101824.50;6249635;22;45523;-85
2022/07/21 08:22:15;;;;;;;;;29.75;25.00;;;;;23.47;57.94;101831.69;6277082;22;45367;-83
2022/07/21 08:24:40;;;;;;;;;32.50;29.75;;;;;23.52;57.99;101827.00;6277109;22;45592;-85
2022/07/21 08:27:06;;;;;;;;;28.50;26.25;;;;;23.53;58.11;101820.69;6278443;22;44774;-86
2022/07/21 08:29:31;;;;;;;;;26.50;24.75;;;;;23.52;57.52;101827.00;6278126;22;45488;-85
2022/07/21 08:31:57;;;;;;;;;25.25;23.50;;;;;23.50;57.87;101835.13;6249926;22;45503;-84
2022/07/21 08:34:22;;;;;;;;;20.50;19.75;;;;;23.60;58.17;101845.50;6249267;22;46993;-84
2022/07/21 08:36:47;;;;;;;;;21.00;19.75;;;;;23.69;58.02;101842.47;6276393;22;45207;-83
2022/07/21 08:39:13;;;;;;;;;28.25;25.50;;;;;23.80;57.67;101833.97;6276299;22;45659;-82
2022/07/21 08:41:40;;;;;;;;;28.75;26.00;;;;;23.93;57.71;101843.28;6249329;22;45482;-83
2022/07/21 08:44:07;;;;;;;;;27.75;26.75;;;;;24.04;57.23;101838.31;6276970;22;46104;-83
2022/07/21 08:46:34;;;;;;;;;23.50;23.50;;;;;24.13;56.88;101842.41;6274222;22;45285;-86
2022/07/21 08:49:02;;;;;;;;;33.00;27.75;;;;;24.14;56.46;101838.81;6249296;22;45353;-83
2022/07/21 08:51:32;;;;;;;;;26.25;25.50;;;;;24.17;56.39;101828.78;6276404;22;45343;-87
2022/07/21 08:53:58;;;;;;;;;25.25;24.00;;;;;24.31;56.87;101841.63;6278306;22;45530;-83
2022/07/21 08:56:23;;;;;;;;;22.75;22.50;;;;;24.44;56.13;101831.22;6252166;22;45282;-82
2022/07/21 08:58:49;;;;;;;;;23.75;22.00;;;;;24.59;55.56;101829.66;6281156;22;45292;-82
2022/07/21 09:01:17;;;;;;;;;24.50;24.25;;;;;24.72;55.56;101832.66;6278099;22;45206;-82
2022/07/21 09:03:43;;;;;;;;;27.00;24.25;;;;;24.82;54.88;101836.69;6277253;22;46295;-81
2022/07/21 09:06:12;;;;;;;;;27.75;24.50;;;;;24.83;54.84;101828.56;6249046;22;45454;-83
2022/07/21 09:08:43;;;;;;;;;23.25;23.25;;;;;24.89;54.53;101827.41;6276013;22;45165;-83
2022/07/21 09:11:21;;;;;;;;;24.75;23.75;;;;;24.89;54.24;101830.09;6249031;22;45782;-82
2022/07/21 09:14:08;;;;;;;;;20.75;20.00;;;;;24.82;54.49;101826.78;6248183;22;47406;-83
2022/07/21 09:16:39;;;;;;;;;21.00;20.00;;;;;24.78;54.48;101832.38;6248788;22;45318;-83
2022/07/21 09:19:06;;;;;;;;;19.50;19.25;;;;;24.73;54.72;101839.81;6248614;22;45526;-83
2022/07/21 09:21:33;;;;;;;;;25.25;22.75;;;;;24.73;54.55;101834.44;6275804;22;45369;-85
2022/07/21 09:24:26;;;;;;;;;23.00;21.00;;;;;24.73;54.46;101831.75;6248012;22;48232;-85
2022/07/21 09:27:00;;;;;;;;;23.00;22.25;;;;;24.76;54.72;101835.16;6277545;22;45276;-89
2022/07/21 09:29:26;;;;;;;;;21.00;19.50;;;;;24.79;54.44;101843.09;6249948;22;45217;-86
2022/07/21 09:31:52;;;;;;;;;26.00;24.75;;;;;24.83;54.58;101838.44;6248906;22;45494;-86
2022/07/21 09:34:20;;;;;;;;;21.00;19.75;;;;;24.89;54.09;101837.31;6274138;22;47289;-85
2022/07/21 09:36:58;;;;;;;;;20.75;19.75;;;;;24.93;54.49;101838.91;6248676;22;45265;-83
2022/07/21 09:39:47;;;;;;;;;12.75;12.75;;;;;24.94;53.94;101843.31;6249145;22;45410;-85
2022/07/21 09:42:15;;;;;;;;;22.00;21.00;;;;;24.93;53.71;101839.75;6249006;22;45867;-86
2022/07/21 09:44:46;;;;;;;;;17.25;16.00;;;;;25.04;53.54;101847.34;6276110;22;45419;-84
2022/07/21 09:47:14;;;;;;;;;24.25;23.25;;;;;25.17;53.61;101845.84;6277236;22;45315;-87
2022/07/21 09:49:41;;;;;;;;;21.50;21.50;;;;;25.26;53.57;101845.44;6278449;22;45491;-84
2022/07/21 09:52:25;;;;;;;;;16.00;16.00;;;;;25.32;53.31;101846.09;6275791;22;45396;-86
2022/07/21 09:54:52;;;;;;;;;19.25;17.00;;;;;25.32;52.89;101840.69;6277282;22;45977;-85
2022/07/21 09:57:18;;;;;;;;;17.25;16.25;;;;;25.37;52.82;101841.31;6277197;22;45266;-84
2022/07/21 09:59:46;;;;;;;;;19.25;18.50;;;;;25.44;53.13;101832.88;6276015;22;45402;-88
2022/07/21 10:02:16;;;;;;;;;20.50;18.00;;;;;25.57;52.39;101835.84;6276266;22;45306;-82
2022/07/21 10:04:45;;;;;;;;;21.00;18.75;;;;;25.70;52.49;101831.59;6277488;22;45390;-87
2022/07/21 10:07:10;;;;;;;;;20.25;20.25;;;;;25.85;52.61;101832.69;6248729;22;46243;-85
2022/07/21 10:09:37;;;;;;;;;19.50;18.00;;;;;25.99;51.90;101828.41;6248772;22;45199;-88
2022/07/21 10:12:02;;;;;;;;;18.25;18.25;;;;;26.04;51.50;101824.53;6249649;22;45277;-85
2022/07/21 10:14:28;;;;;;;;;18.25;18.25;;;;;26.03;51.33;101816.50;6276086;22;45992;-88
2022/07/21 10:16:54;;;;;;;;;15.75;15.75;;;;;25.96;51.25;101822.22;6249657;22;45673;-83
2022/07/21 10:19:27;;;;;;;;;16.75;16.75;;;;;26.00;51.10;101824.75;6248815;22;45303;-88
2022/07/21 10:22:23;;;;;;;;;22.00;19.25;;;;;25.97;50.91;101828.47;6249407;22;45127;-83
2022/07/21 10:24:49;;;;;;;;;15.25;15.25;;;;;25.89;50.99;101819.91;6248214;22;47215;-82
2022/07/21 10:27:14;;;;;;;;;17.50;17.50;;;;;25.93;51.58;101829.63;6248344;22;45309;-81
2022/07/21 10:29:55;;;;;;;;;15.00;15.00;;;;;25.97;50.94;101825.78;6247038;22;45523;-78
2022/07/21 10:32:47;;;;;;;;;15.00;15.00;;;;;26.02;50.75;101821.03;6248441;22;45380;-78
2022/07/21 10:35:30;;;;;;;;;20.50;20.00;;;;;26.10;50.91;101823.34;6247986;22;47521;-79
2022/07/21 10:37:56;;;;;;;;;11.00;11.00;;;;;26.03;49.78;101825.47;6275297;22;45366;-79
2022/07/21 10:40:22;;;;;;;;;16.00;16.00;;;;;26.02;50.43;101828.25;6275143;22;45259;-79
2022/07/21 10:42:59;;;;;;;;;12.75;11.25;;;;;26.05;50.26;101833.50;6276224;22;45250;-76
2022/07/21 10:45:42;;;;;;;;;16.75;16.50;;;;;26.11;50.81;101825.06;6247738;22;46958;-78
2022/07/21 10:48:37;;;;;;;;;18.25;17.25;;;;;26.30;50.23;101842.09;6276567;22;45411;-82
2022/07/21 10:51:24;;;;;;;;;18.50;16.25;;;;;26.37;50.10;101829.97;6247864;22;45398;-75
2022/07/21 10:54:19;;;;;;;;;15.50;15.50;;;;;26.48;49.88;101834.81;6247040;22;45475;-74
2022/07/21 10:56:44;;;;;;;;;15.75;15.00;;;;;26.59;49.53;101832.44;6275900;22;45407;-75
2022/07/21 10:59:10;;;;;;;;;16.25;14.75;;;;;26.71;49.49;101835.47;6247557;22;45290;-75
2022/07/21 11:01:36;;;;;;;;;16.25;16.25;;;;;26.91;48.88;101837.94;6275071;22;46265;-76
2022/07/21 11:04:13;;;;;;;;;17.25;16.25;;;;;27.08;48.20;101834.31;6276230;22;45233;-76
2022/07/21 11:06:40;;;;;;;;;13.25;12.00;;;;;27.29;48.04;101818.72;6275809;22;45417;-75
2022/07/21 11:09:15;;;;;;;;;13.75;13.75;;;;;27.54;48.14;101834.44;6274587;22;45313;-75
2022/07/21 11:11:59;;;;;;;;;16.75;16.00;;;;;27.64;47.42;101830.22;6249380;22;45458;-76
2022/07/21 11:14:36;;;;;;;;;17.75;17.75;;;;;27.67;47.10;101830.06;6249049;22;45389;-76
2022/07/21 11:17:03;;;;;;;;;15.00;14.50;;;;;27.73;46.52;101833.38;6277100;22;46013;-75
2022/07/21 11:19:49;;;;;;;;;16.50;13.50;;;;;27.76;46.78;101833.19;6276000;22;45325;-75
2022/07/21 11:22:22;;;;;;;;;14.00;13.00;;;;;27.86;45.79;101823.59;6276741;22;45405;-75
2022/07/21 11:24:50;;;;;;;;;14.50;13.25;;;;;28.01;46.15;101827.19;6277422;22;45489;-75